Time;durP1;ratioP1;P1;durP2;ratioP2;P2;SDS_P1;SDS_P2;PMS_P1;PMS_P2;Temp;Humidity;BMP_temperature;BMP_pressure;BME280_temperature;BME280_humidity;BME280_pressure;Samples;Min_cycle;Max_cycle;Signal;HPM_P1;HPM_P2
2021/12/31 00:00:53;;;;;;;12.07;3.80;;;;;;;;;;4971136;28;20055;-67
2021/12/31 00:03:23;;;;;;;7.57;3.45;;;;;;;;;;4971516;28;20054;-66
2021/12/31 00:05:53;;;;;;;8.35;3.78;;;;;;;;;;4971511;28;20070;-66
2021/12/31 00:08:23;;;;;;;9.50;3.95;;;;;;;;;;4990437;28;20061;-67
2021/12/31 00:10:59;;;;;;;6.60;3.35;;;;;;;;;;4990677;28;20046;-66
2021/12/31 00:13:30;;;;;;;8.63;3.75;;;;;;;;;;4990725;28;20054;-66
2021/12/31 00:16:00;;;;;;;8.05;3.13;;;;;;;;;;4990878;28;20062;-66
2021/12/31 00:18:30;;;;;;;8.07;3.28;;;;;;;;;;5000758;28;20065;-66
2021/12/31 00:21:01;;;;;;;6.82;3.15;;;;;;;;;;4990096;28;20080;-66
2021/12/31 00:23:32;;;;;;;7.07;3.55;;;;;;;;;;4990615;28;20070;-66
2021/12/31 00:26:03;;;;;;;8.88;3.67;;;;;;;;;;4990222;28;20070;-67
2021/12/31 00:28:33;;;;;;;7.22;3.20;;;;;;;;;;4989424;28;20073;-66
2021/12/31 00:31:04;;;;;;;5.25;3.00;;;;;;;;;;4947759;28;20059;-67
2021/12/31 00:33:35;;;;;;;6.03;3.10;;;;;;;;;;4957179;28;20408;-67
2021/12/31 00:36:05;;;;;;;6.75;4.05;;;;;;;;;;4932407;29;20058;-68
2021/12/31 00:38:36;;;;;;;6.53;3.67;;;;;;;;;;4923073;29;20055;-66
2021/12/31 00:41:05;;;;;;;8.45;4.03;;;;;;;;;;4930453;29;20056;-67
2021/12/31 00:43:36;;;;;;;12.32;3.75;;;;;;;;;;4866391;29;20560;-67
2021/12/31 00:46:07;;;;;;;9.20;4.78;;;;;;;;;;4933056;29;20523;-66
2021/12/31 00:48:37;;;;;;;11.27;5.13;;;;;;;;;;4951386;29;20085;-67
2021/12/31 00:51:07;;;;;;;7.43;4.70;;;;;;;;;;4931022;29;20087;-66
2021/12/31 00:53:37;;;;;;;9.05;4.25;;;;;;;;;;4950861;29;20051;-66
2021/12/31 00:56:08;;;;;;;9.43;4.95;;;;;;;;;;4931773;29;20055;-67
2021/12/31 00:58:38;;;;;;;9.98;5.05;;;;;;;;;;4932196;29;20059;-66
2021/12/31 01:01:16;;;;;;;10.57;6.00;;;;;;;;;;4912685;29;20528;-66
2021/12/31 01:03:48;;;;;;;10.35;4.60;;;;;;;;;;4912974;29;20068;-66
2021/12/31 01:06:18;;;;;;;8.52;5.68;;;;;;;;;;4865010;29;20050;-68
2021/12/31 01:08:49;;;;;;;10.88;5.65;;;;;;;;;;4856562;29;20425;-67
2021/12/31 01:11:19;;;;;;;9.65;6.38;;;;;;;;;;4856506;29;20057;-67
2021/12/31 01:13:57;;;;;;;8.27;5.22;;;;;;;;;;4856674;29;20061;-66
2021/12/31 01:16:37;;;;;;;;;;;;;;;;;;4836084;29;20077;-66
2021/12/31 01:21:37;;;;;;;7.45;3.50;;;;;;;;;;4855799;29;20057;-68
2021/12/31 01:24:07;;;;;;;6.75;4.25;;;;;;;;;;4875048;29;20052;-67
2021/12/31 01:26:37;;;;;;;6.72;4.50;;;;;;;;;;4875379;29;20513;-66
2021/12/31 01:29:08;;;;;;;11.45;4.82;;;;;;;;;;4868158;29;20065;-66
2021/12/31 01:31:38;;;;;;;8.95;4.55;;;;;;;;;;4899265;29;20056;-66
2021/12/31 01:34:08;;;;;;;10.38;5.05;;;;;;;;;;4937133;29;20051;-66
2021/12/31 01:36:39;;;;;;;7.93;4.43;;;;;;;;;;4950875;29;20411;-67
2021/12/31 01:39:10;;;;;;;10.95;5.00;;;;;;;;;;4950660;29;20059;-67
2021/12/31 01:41:41;;;;;;;7.03;4.65;;;;;;;;;;4931368;29;20048;-67
2021/12/31 01:44:11;;;;;;;8.85;4.65;;;;;;;;;;4912281;29;20048;-67
2021/12/31 01:46:58;;;;;;;7.47;4.85;;;;;;;;;;4924142;29;20067;-66
2021/12/31 01:49:35;;;;;;;10.00;4.22;;;;;;;;;;4913108;28;20055;-68
2021/12/31 01:52:06;;;;;;;8.90;4.70;;;;;;;;;;4934718;29;20055;-68
2021/12/31 01:54:38;;;;;;;10.52;5.50;;;;;;;;;;4951364;28;20594;-67
2021/12/31 01:57:10;;;;;;;7.47;4.03;;;;;;;;;;4951062;28;20050;-67
2021/12/31 01:59:41;;;;;;;10.75;3.95;;;;;;;;;;4964469;28;20061;-66
2021/12/31 02:02:11;;;;;;;8.98;4.18;;;;;;;;;;5009174;28;20536;-66
2021/12/31 02:04:42;;;;;;;12.00;4.82;;;;;;;;;;4976282;28;20077;-66
2021/12/31 02:07:12;;;;;;;10.50;4.13;;;;;;;;;;5008983;28;20058;-67
2021/12/31 02:09:53;;;;;;;7.93;3.95;;;;;;;;;;4992657;28;20058;-66
2021/12/31 02:12:23;;;;;;;7.57;3.50;;;;;;;;;;5008591;28;20062;-72
2021/12/31 02:14:53;;;;;;;7.50;4.00;;;;;;;;;;5008879;28;20062;-66
2021/12/31 02:17:24;;;;;;;5.38;3.35;;;;;;;;;;4992821;28;20077;-68
2021/12/31 02:20:05;;;;;;;5.95;3.28;;;;;;;;;;5007370;28;20100;-68
2021/12/31 02:22:40;;;;;;;7.38;3.42;;;;;;;;;;5079023;28;20407;-67
2021/12/31 02:25:10;;;;;;;6.07;2.70;;;;;;;;;;5039224;28;20056;-66
2021/12/31 02:27:41;;;;;;;5.65;3.38;;;;;;;;;;5028143;28;20494;-67
2021/12/31 02:30:11;;;;;;;5.13;2.92;;;;;;;;;;5004778;28;20058;-67
2021/12/31 02:32:43;;;;;;;5.15;3.30;;;;;;;;;;4956731;28;20051;-68
2021/12/31 02:35:13;;;;;;;8.93;4.03;;;;;;;;;;4989344;28;20051;-66
2021/12/31 02:37:44;;;;;;;5.53;3.13;;;;;;;;;;4988948;28;20549;-67
2021/12/31 02:40:17;;;;;;;8.05;4.75;;;;;;;;;;4940926;28;20050;-66
2021/12/31 02:42:48;;;;;;;7.72;3.75;;;;;;;;;;4988661;28;20191;-67
2021/12/31 02:45:22;;;;;;;6.40;3.13;;;;;;;;;;4953099;28;20059;-67
2021/12/31 02:47:52;;;;;;;14.60;3.70;;;;;;;;;;4969371;28;20054;-67
2021/12/31 02:50:33;;;;;;;10.18;3.42;;;;;;;;;;4930722;29;20056;-67
2021/12/31 02:53:09;;;;;;;10.70;5.32;;;;;;;;;;4933563;29;20071;-67
2021/12/31 02:55:41;;;;;;;10.27;3.83;;;;;;;;;;4918312;29;20048;-67
2021/12/31 02:58:12;;;;;;;10.75;4.70;;;;;;;;;;4938825;29;20066;-69
2021/12/31 03:00:43;;;;;;;12.40;3.88;;;;;;;;;;4957706;28;20062;-67
2021/12/31 03:03:18;;;;;;;8.32;3.40;;;;;;;;;;4956714;28;20066;-68
2021/12/31 03:05:51;;;;;;;7.85;3.67;;;;;;;;;;4972642;28;20058;-67
2021/12/31 03:08:25;;;;;;;9.45;4.43;;;;;;;;;;4972513;28;20502;-68
2021/12/31 03:10:57;;;;;;;7.28;3.83;;;;;;;;;;4972908;28;20055;-67
2021/12/31 03:13:29;;;;;;;11.07;4.60;;;;;;;;;;4956936;28;20055;-67
2021/12/31 03:16:00;;;;;;;9.55;5.43;;;;;;;;;;4939629;29;20047;-66
2021/12/31 03:18:31;;;;;;;9.93;4.65;;;;;;;;;;4952750;28;20098;-67
2021/12/31 03:21:09;;;;;;;9.95;5.07;;;;;;;;;;4953356;28;20063;-66
2021/12/31 03:23:39;;;;;;;9.35;4.38;;;;;;;;;;4952967;28;20062;-66
2021/12/31 03:26:10;;;;;;;11.32;4.65;;;;;;;;;;4949148;28;20058;-67
2021/12/31 03:28:40;;;;;;;14.20;4.93;;;;;;;;;;4902262;29;20059;-68
2021/12/31 03:31:10;;;;;;;9.07;4.47;;;;;;;;;;4933682;29;20064;-67
2021/12/31 03:33:41;;;;;;;11.10;4.60;;;;;;;;;;4949210;29;20428;-67
2021/12/31 03:36:12;;;;;;;7.95;4.65;;;;;;;;;;4949317;29;20056;-67
2021/12/31 03:38:41;;;;;;;9.98;5.40;;;;;;;;;;4952424;28;20054;-67
2021/12/31 03:41:12;;;;;;;9.48;5.22;;;;;;;;;;4936325;29;20051;-66
2021/12/31 03:43:43;;;;;;;6.95;5.18;;;;;;;;;;4933108;29;20066;-67
2021/12/31 03:46:13;;;;;;;8.18;4.72;;;;;;;;;;4933489;28;20444;-68
2021/12/31 03:48:43;;;;;;;14.32;4.95;;;;;;;;;;4933461;29;20616;-66
2021/12/31 03:51:14;;;;;;;9.00;3.97;;;;;;;;;;4933478;29;20059;-67
2021/12/31 03:53:45;;;;;;;14.27;5.20;;;;;;;;;;4943921;28;20079;-67
2021/12/31 03:56:20;;;;;;;10.25;4.47;;;;;;;;;;4973518;28;20064;-67
2021/12/31 03:58:50;;;;;;;7.55;4.05;;;;;;;;;;4943071;28;20054;-67
2021/12/31 04:01:20;;;;;;;12.75;4.25;;;;;;;;;;4991072;28;20521;-68
2021/12/31 04:03:51;;;;;;;10.32;4.38;;;;;;;;;;4990773;28;20058;-67
2021/12/31 04:06:21;;;;;;;15.40;4.97;;;;;;;;;;4991041;28;20058;-67
2021/12/31 04:08:52;;;;;;;11.45;5.13;;;;;;;;;;4990772;28;20058;-67
2021/12/31 04:11:22;;;;;;;11.98;5.43;;;;;;;;;;5010097;28;20049;-67
2021/12/31 04:13:53;;;;;;;10.10;5.30;;;;;;;;;;5010491;28;20564;-67
2021/12/31 04:16:24;;;;;;;11.77;5.05;;;;;;;;;;5010429;28;20050;-67
2021/12/31 04:18:54;;;;;;;14.20;4.90;;;;;;;;;;5030907;28;20056;-67
2021/12/31 04:21:26;;;;;;;6.95;5.32;;;;;;;;;;5040082;28;20056;-70
2021/12/31 04:26:59;;;;;;;7.28;4.22;;;;;;;;;;4990596;28;20122;-67
2021/12/31 04:29:29;;;;;;;7.10;3.72;;;;;;;;;;4951494;29;20055;-67
2021/12/31 04:32:03;;;;;;;10.05;4.85;;;;;;;;;;4951881;29;20566;-66
2021/12/31 04:34:33;;;;;;;8.25;4.13;;;;;;;;;;4951690;28;20059;-67
2021/12/31 04:37:04;;;;;;;9.82;3.22;;;;;;;;;;4951483;28;20051;-66
2021/12/31 04:39:34;;;;;;;9.93;3.47;;;;;;;;;;4951545;28;20051;-67
2021/12/31 04:42:05;;;;;;;9.27;3.78;;;;;;;;;;4951461;28;20055;-66
2021/12/31 04:44:35;;;;;;;13.73;3.80;;;;;;;;;;4951573;28;20047;-67
2021/12/31 04:47:06;;;;;;;7.30;4.25;;;;;;;;;;4951533;28;20055;-67
2021/12/31 04:49:36;;;;;;;6.72;3.00;;;;;;;;;;4923086;28;20059;-68
2021/12/31 04:52:06;;;;;;;7.78;3.92;;;;;;;;;;4932058;29;20162;-68
2021/12/31 04:54:36;;;;;;;6.05;3.05;;;;;;;;;;4932322;29;20075;-66
2021/12/31 04:57:07;;;;;;;8.80;3.00;;;;;;;;;;4932290;29;20454;-67
2021/12/31 04:59:38;;;;;;;10.20;3.40;;;;;;;;;;4917815;29;20052;-68
2021/12/31 05:02:08;;;;;;;7.13;3.47;;;;;;;;;;4927788;28;20059;-66
2021/12/31 05:04:38;;;;;;;9.93;3.72;;;;;;;;;;4970489;28;20528;-67
2021/12/31 05:07:09;;;;;;;10.93;3.35;;;;;;;;;;5006112;28;20061;-67
2021/12/31 05:09:39;;;;;;;8.43;4.32;;;;;;;;;;5009555;28;20062;-66
2021/12/31 05:12:14;;;;;;;13.13;3.63;;;;;;;;;;4989487;28;20426;-67
2021/12/31 05:14:45;;;;;;;5.60;4.20;;;;;;;;;;4999347;28;20061;-67
2021/12/31 05:17:16;;;;;;;9.43;4.00;;;;;;;;;;5009402;28;20065;-66
2021/12/31 05:19:46;;;;;;;8.57;3.67;;;;;;;;;;5009439;28;20050;-67
2021/12/31 05:22:16;;;;;;;9.13;3.47;;;;;;;;;;4989289;28;20058;-67
2021/12/31 05:24:46;;;;;;;11.15;3.40;;;;;;;;;;4989883;28;20058;-67
2021/12/31 05:27:17;;;;;;;9.02;3.35;;;;;;;;;;4969736;28;20062;-66
2021/12/31 05:29:47;;;;;;;7.13;3.38;;;;;;;;;;4960004;28;20051;-66
2021/12/31 05:32:17;;;;;;;17.15;5.65;;;;;;;;;;4950966;29;20559;-68
2021/12/31 05:34:47;;;;;;;14.63;6.78;;;;;;;;;;4950651;29;20070;-66
2021/12/31 05:37:17;;;;;;;15.68;7.47;;;;;;;;;;4929053;28;20371;-67
2021/12/31 05:39:48;;;;;;;18.60;7.15;;;;;;;;;;4970044;28;20051;-67
2021/12/31 05:42:18;;;;;;;20.50;8.18;;;;;;;;;;4950566;29;20566;-66
2021/12/31 05:44:48;;;;;;;18.08;10.45;;;;;;;;;;4950865;29;20495;-66
2021/12/31 05:47:18;;;;;;;17.95;8.98;;;;;;;;;;4950721;29;20051;-66
2021/12/31 05:49:50;;;;;;;13.07;6.10;;;;;;;;;;4916008;29;20491;-66
2021/12/31 05:52:21;;;;;;;13.60;6.97;;;;;;;;;;4934305;29;20090;-67
2021/12/31 05:54:51;;;;;;;13.25;6.90;;;;;;;;;;4950616;29;20055;-66
2021/12/31 05:57:21;;;;;;;12.88;6.07;;;;;;;;;;4951044;29;20063;-67
2021/12/31 05:59:52;;;;;;;13.50;6.40;;;;;;;;;;4950601;29;20059;-67
2021/12/31 06:02:23;;;;;;;14.88;6.93;;;;;;;;;;4950752;29;20047;-66
2021/12/31 06:04:53;;;;;;;20.98;6.70;;;;;;;;;;4978786;28;20065;-69
2021/12/31 06:07:23;;;;;;;17.30;7.07;;;;;;;;;;5009060;28;20066;-67
2021/12/31 06:09:54;;;;;;;16.90;6.40;;;;;;;;;;5008782;28;20058;-66
2021/12/31 06:12:25;;;;;;;11.90;6.00;;;;;;;;;;5009103;28;20046;-68
2021/12/31 06:14:59;;;;;;;15.75;6.60;;;;;;;;;;5009044;28;20050;-67
2021/12/31 06:17:30;;;;;;;19.88;7.03;;;;;;;;;;4953280;28;20195;-66
2021/12/31 06:20:01;;;;;;;17.50;7.10;;;;;;;;;;4967277;28;20057;-66
2021/12/31 06:22:32;;;;;;;16.13;8.00;;;;;;;;;;5008303;28;20552;-67
2021/12/31 06:25:03;;;;;;;25.42;9.30;;;;;;;;;;5008438;28;20050;-68
2021/12/31 06:27:33;;;;;;;18.27;8.25;;;;;;;;;;4939314;28;20061;-68
2021/12/31 06:30:05;;;;;;;22.27;8.98;;;;;;;;;;4972756;28;20058;-67
2021/12/31 06:32:35;;;;;;;21.55;10.60;;;;;;;;;;4937866;28;20181;-67
2021/12/31 06:35:05;;;;;;;20.42;11.15;;;;;;;;;;4953793;28;20063;-68
2021/12/31 06:37:36;;;;;;;27.15;12.38;;;;;;;;;;4934742;29;20042;-66
2021/12/31 06:40:10;;;;;;;25.55;12.10;;;;;;;;;;4934867;29;20071;-67
2021/12/31 06:42:41;;;;;;;22.70;11.75;;;;;;;;;;4915358;29;20052;-66
2021/12/31 06:45:11;;;;;;;21.40;12.38;;;;;;;;;;4911868;29;20052;-67
2021/12/31 06:47:41;;;;;;;23.63;10.43;;;;;;;;;;4896757;29;20060;-67
2021/12/31 06:50:12;;;;;;;20.20;9.63;;;;;;;;;;4877623;29;20049;-67
2021/12/31 06:52:43;;;;;;;19.65;10.68;;;;;;;;;;4877924;29;20094;-67
2021/12/31 06:55:14;;;;;;;26.25;9.75;;;;;;;;;;4857649;29;20057;-67
2021/12/31 06:57:46;;;;;;;19.63;8.43;;;;;;;;;;4818845;29;20054;-67
2021/12/31 07:00:17;;;;;;;17.45;8.18;;;;;;;;;;4804120;29;20073;-67
2021/12/31 07:02:48;;;;;;;19.67;9.07;;;;;;;;;;4836911;29;20046;-67
2021/12/31 07:05:18;;;;;;;18.45;8.48;;;;;;;;;;4822206;29;20058;-68
2021/12/31 07:07:48;;;;;;;16.80;9.30;;;;;;;;;;4880975;29;20053;-67
2021/12/31 07:10:19;;;;;;;17.38;7.82;;;;;;;;;;4896000;29;20098;-67
2021/12/31 07:12:49;;;;;;;14.90;7.05;;;;;;;;;;4876984;29;20060;-68
2021/12/31 07:15:19;;;;;;;20.52;6.85;;;;;;;;;;4877147;29;20061;-67
2021/12/31 07:17:49;;;;;;;18.30;6.82;;;;;;;;;;4862346;29;20060;-67
2021/12/31 07:20:21;;;;;;;15.32;6.10;;;;;;;;;;4877473;29;20441;-67
2021/12/31 07:22:51;;;;;;;13.90;5.80;;;;;;;;;;4877221;29;20399;-68
2021/12/31 07:25:22;;;;;;;16.67;6.75;;;;;;;;;;4863774;29;20053;-67
2021/12/31 07:27:53;;;;;;;11.55;5.53;;;;;;;;;;4874083;29;20067;-68
2021/12/31 07:30:24;;;;;;;15.52;5.68;;;;;;;;;;4899499;29;20063;-67
2021/12/31 07:32:54;;;;;;;13.98;7.00;;;;;;;;;;4908915;29;20056;-67
2021/12/31 07:35:25;;;;;;;9.98;5.60;;;;;;;;;;4943698;29;20059;-67
2021/12/31 07:37:56;;;;;;;13.48;4.75;;;;;;;;;;4952453;28;20067;-67
2021/12/31 07:40:41;;;;;;;15.63;4.35;;;;;;;;;;4933293;29;20055;-67
2021/12/31 07:43:12;;;;;;;;;;;;;;;;;;4934171;29;20044;-66
2021/12/31 07:45:42;;;;;;;12.90;6.68;;;;;;;;;;4933627;29;19930;-70
2021/12/31 07:48:13;;;;;;;8.55;4.70;;;;;;;;;;4941872;28;20055;-67
2021/12/31 07:50:43;;;;;;;9.10;5.00;;;;;;;;;;4983678;28;20442;-67
2021/12/31 07:53:13;;;;;;;11.18;4.40;;;;;;;;;;4990839;28;20081;-68
2021/12/31 07:55:44;;;;;;;14.18;4.68;;;;;;;;;;4991473;28;20046;-66
2021/12/31 07:58:14;;;;;;;10.23;4.47;;;;;;;;;;4990655;28;20046;-67
2021/12/31 08:00:45;;;;;;;13.63;4.47;;;;;;;;;;4991257;28;20061;-67
2021/12/31 08:03:16;;;;;;;10.77;4.13;;;;;;;;;;4942562;28;20051;-68
2021/12/31 08:05:46;;;;;;;12.93;4.15;;;;;;;;;;4990966;28;20058;-67
2021/12/31 08:08:17;;;;;;;13.27;5.07;;;;;;;;;;4991221;28;20065;-68
2021/12/31 08:10:47;;;;;;;15.40;5.57;;;;;;;;;;4990849;28;20159;-67
2021/12/31 08:13:26;;;;;;;8.93;4.00;;;;;;;;;;4976230;28;20066;-67
2021/12/31 08:15:57;;;;;;;15.25;4.07;;;;;;;;;;4971414;28;20053;-66
2021/12/31 08:18:27;;;;;;;11.00;4.45;;;;;;;;;;4983580;28;20058;-70
2021/12/31 08:20:57;;;;;;;8.85;4.07;;;;;;;;;;4990817;28;20046;-67
2021/12/31 08:23:27;;;;;;;11.15;3.83;;;;;;;;;;4990803;28;20545;-67
2021/12/31 08:25:59;;;;;;;16.15;4.25;;;;;;;;;;5000817;28;20057;-68
2021/12/31 08:28:29;;;;;;;10.77;4.18;;;;;;;;;;4994080;28;20077;-67
2021/12/31 08:31:00;;;;;;;7.53;3.88;;;;;;;;;;4994143;28;20073;-67
2021/12/31 08:33:30;;;;;;;11.35;3.95;;;;;;;;;;5009780;28;20062;-67
2021/12/31 08:36:00;;;;;;;9.55;4.68;;;;;;;;;;5010115;28;20393;-67
2021/12/31 08:38:31;;;;;;;13.15;4.10;;;;;;;;;;5009850;28;20064;-67
2021/12/31 08:41:02;;;;;;;14.43;4.22;;;;;;;;;;4993700;28;20506;-66
2021/12/31 08:43:49;;;;;;;13.35;6.18;;;;;;;;;;5009878;28;20058;-67
2021/12/31 08:46:22;;;;;;;15.93;5.90;;;;;;;;;;5009866;28;20061;-67
2021/12/31 08:48:52;;;;;;;13.80;5.53;;;;;;;;;;4960643;28;20050;-67
2021/12/31 08:51:23;;;;;;;10.38;6.10;;;;;;;;;;5009632;28;20065;-67
2021/12/31 08:53:54;;;;;;;15.75;7.28;;;;;;;;;;4973282;28;20063;-67
2021/12/31 08:56:25;;;;;;;14.80;7.15;;;;;;;;;;5029315;28;20049;-67
2021/12/31 08:58:55;;;;;;;16.20;7.90;;;;;;;;;;4990116;28;20061;-66
2021/12/31 09:01:26;;;;;;;15.98;8.10;;;;;;;;;;4974271;28;20054;-67
2021/12/31 09:03:57;;;;;;;14.38;7.55;;;;;;;;;;5016153;28;20190;-66
2021/12/31 09:06:26;;;;;;;10.70;6.47;;;;;;;;;;5029457;28;20057;-66
2021/12/31 09:08:57;;;;;;;13.43;6.00;;;;;;;;;;5009158;28;20052;-68
2021/12/31 09:11:27;;;;;;;11.75;6.97;;;;;;;;;;4989733;28;20094;-68
2021/12/31 09:13:58;;;;;;;11.88;6.65;;;;;;;;;;4989596;28;20069;-67
2021/12/31 09:16:29;;;;;;;14.35;5.00;;;;;;;;;;4989700;28;20058;-67
2021/12/31 09:19:00;;;;;;;12.85;6.25;;;;;;;;;;4973803;28;20077;-67
2021/12/31 09:21:30;;;;;;;14.55;6.40;;;;;;;;;;4957161;28;20054;-67
2021/12/31 09:24:00;;;;;;;10.68;5.43;;;;;;;;;;4957285;28;20055;-67
2021/12/31 09:26:30;;;;;;;9.85;4.78;;;;;;;;;;4941179;28;20060;-67
2021/12/31 09:29:01;;;;;;;12.32;4.97;;;;;;;;;;4932957;29;20096;-66
2021/12/31 09:31:31;;;;;;;10.55;5.72;;;;;;;;;;4950812;28;20066;-67
2021/12/31 09:34:01;;;;;;;10.98;5.75;;;;;;;;;;4931262;29;20043;-68
2021/12/31 09:36:31;;;;;;;12.65;5.63;;;;;;;;;;4931977;29;20494;-66
2021/12/31 09:39:01;;;;;;;16.17;7.18;;;;;;;;;;4931657;29;20061;-67
2021/12/31 09:41:31;;;;;;;13.35;6.32;;;;;;;;;;4912502;29;20067;-67
2021/12/31 09:44:02;;;;;;;10.82;6.57;;;;;;;;;;4912642;29;20060;-67
2021/12/31 09:46:34;;;;;;;13.65;6.22;;;;;;;;;;4912528;29;20060;-68
2021/12/31 09:49:04;;;;;;;19.23;5.72;;;;;;;;;;4915106;29;20063;-66
2021/12/31 09:51:34;;;;;;;12.18;5.43;;;;;;;;;;4950705;28;20059;-67
2021/12/31 09:54:05;;;;;;;11.27;5.82;;;;;;;;;;4931533;29;20599;-66
2021/12/31 09:56:39;;;;;;;11.93;5.32;;;;;;;;;;4931150;29;20404;-66
2021/12/31 09:59:10;;;;;;;12.75;5.50;;;;;;;;;;4912319;29;20551;-67
2021/12/31 10:01:46;;;;;;;7.65;4.43;;;;;;;;;;4868380;29;20570;-67
2021/12/31 10:04:18;;;;;;;10.57;4.45;;;;;;;;;;4937416;29;20062;-67
2021/12/31 10:07:08;;;;;;;8.35;3.72;;;;;;;;;;4938187;29;20080;-67
2021/12/31 10:09:40;;;;;;;6.18;3.67;;;;;;;;;;4953979;28;20419;-68
2021/12/31 10:12:15;;;;;;;11.25;4.05;;;;;;;;;;4953882;28;20054;-67
2021/12/31 10:14:45;;;;;;;7.53;3.78;;;;;;;;;;4937951;28;20071;-67
2021/12/31 10:17:35;;;;;;;8.23;4.45;;;;;;;;;;4954139;28;20534;-67
2021/12/31 10:20:05;;;;;;;8.68;4.70;;;;;;;;;;4954170;28;20051;-67
2021/12/31 10:22:36;;;;;;;9.00;4.40;;;;;;;;;;4973229;28;20142;-68
2021/12/31 10:25:26;;;;;;;6.72;4.07;;;;;;;;;;4973338;28;20510;-67
2021/12/31 10:28:11;;;;;;;7.28;2.95;;;;;;;;;;4973318;28;20066;-66
2021/12/31 10:30:43;;;;;;;4.30;2.40;;;;;;;;;;4974148;28;20061;-66
2021/12/31 10:33:14;;;;;;;10.30;5.07;;;;;;;;;;4969838;28;20624;-68
2021/12/31 10:35:47;;;;;;;3.10;1.70;;;;;;;;;;4950532;28;20058;-66
2021/12/31 10:38:18;;;;;;;4.45;2.38;;;;;;;;;;4919257;29;20063;-66
2021/12/31 10:40:48;;;;;;;5.90;2.80;;;;;;;;;;4953524;28;20051;-67
2021/12/31 10:43:25;;;;;;;3.38;1.98;;;;;;;;;;4953997;28;20070;-67
2021/12/31 10:46:08;;;;;;;3.53;1.90;;;;;;;;;;4938221;29;20066;-66
2021/12/31 10:48:44;;;;;;;3.45;1.90;;;;;;;;;;4953350;29;20058;-67
2021/12/31 10:51:34;;;;;;;6.45;2.30;;;;;;;;;;4972941;28;20074;-66
2021/12/31 10:54:29;;;;;;;4.10;1.75;;;;;;;;;;4957323;28;20066;-66
2021/12/31 10:57:01;;;;;;;3.38;1.75;;;;;;;;;;4972863;28;20050;-66
2021/12/31 10:59:37;;;;;;;;;;;;;;;;;;4977416;28;20046;-66
2021/12/31 11:02:07;;;;;;;3.08;1.65;;;;;;;;;;4953219;29;20431;-66
2021/12/31 11:04:38;;;;;;;5.25;2.00;;;;;;;;;;4953246;29;20062;-65
2021/12/31 11:07:10;;;;;;;3.10;1.73;;;;;;;;;;4937482;29;20055;-65
2021/12/31 11:09:42;;;;;;;3.35;1.73;;;;;;;;;;4969169;28;20083;-66
2021/12/31 11:12:14;;;;;;;2.90;2.50;;;;;;;;;;4971501;28;20099;-66
2021/12/31 11:14:45;;;;;;;6.50;2.40;;;;;;;;;;4972779;28;20062;-66
2021/12/31 11:17:15;;;;;;;5.07;1.75;;;;;;;;;;4949335;28;20048;-66
2021/12/31 11:19:49;;;;;;;3.28;2.05;;;;;;;;;;4914817;29;20056;-66
2021/12/31 11:22:25;;;;;;;3.35;2.35;;;;;;;;;;4952845;29;20554;-65
2021/12/31 11:25:18;;;;;;;3.83;1.80;;;;;;;;;;4952692;29;20055;-66
2021/12/31 11:27:49;;;;;;;3.45;2.03;;;;;;;;;;4936820;29;20059;-66
2021/12/31 11:30:38;;;;;;;4.72;1.80;;;;;;;;;;4933479;29;20079;-66
2021/12/31 11:33:18;;;;;;;3.20;1.92;;;;;;;;;;4933642;29;20065;-65
2021/12/31 11:35:58;;;;;;;4.30;2.40;;;;;;;;;;4898574;29;20060;-64
2021/12/31 11:38:28;;;;;;;3.50;2.00;;;;;;;;;;4914624;29;20064;-66
2021/12/31 11:41:20;;;;;;;3.15;1.85;;;;;;;;;;4895383;29;20056;-67
2021/12/31 11:44:13;;;;;;;4.95;2.78;;;;;;;;;;4910617;29;20053;-66
2021/12/31 11:46:48;;;;;;;4.18;2.50;;;;;;;;;;4895232;29;20076;-67
2021/12/31 11:49:26;;;;;;;3.00;2.15;;;;;;;;;;4895659;29;20060;-67
2021/12/31 11:52:07;;;;;;;3.72;2.58;;;;;;;;;;4929769;29;20052;-66
2021/12/31 11:54:40;;;;;;;4.03;1.67;;;;;;;;;;4928755;29;20571;-66
2021/12/31 11:57:16;;;;;;;5.07;2.08;;;;;;;;;;4937014;29;20059;-66
2021/12/31 11:59:48;;;;;;;2.67;1.50;;;;;;;;;;4944012;29;20444;-65
2021/12/31 12:02:34;;;;;;;4.78;1.80;;;;;;;;;;4933278;29;20051;-67
2021/12/31 12:05:11;;;;;;;9.40;2.00;;;;;;;;;;4933105;29;20787;-66
2021/12/31 12:07:46;;;;;;;2.65;1.83;;;;;;;;;;4955234;28;20063;-65
2021/12/31 12:10:24;;;;;;;6.00;2.25;;;;;;;;;;4974898;28;20626;-66
2021/12/31 12:13:16;;;;;;;4.88;1.60;;;;;;;;;;4995937;28;20520;-67
2021/12/31 12:15:46;;;;;;;3.35;2.47;;;;;;;;;;5010273;28;20054;-67
2021/12/31 12:18:53;;;;;;;5.93;2.13;;;;;;;;;;4987810;28;20050;-66
2021/12/31 12:21:36;;;;;;;4.97;2.70;;;;;;;;;;4999555;28;20050;-68
2021/12/31 12:24:08;;;;;;;3.28;2.25;;;;;;;;;;5010043;28;20073;-67
2021/12/31 12:26:38;;;;;;;4.47;2.05;;;;;;;;;;4994192;28;20053;-66
2021/12/31 12:29:08;;;;;;;4.25;1.70;;;;;;;;;;4969415;28;20054;-66
2021/12/31 12:31:45;;;;;;;3.17;1.70;;;;;;;;;;5010109;28;20053;-66
2021/12/31 12:34:15;;;;;;;3.60;1.90;;;;;;;;;;4977482;28;20056;-67
2021/12/31 12:36:45;;;;;;;3.08;1.65;;;;;;;;;;5005570;28;20153;-65
2021/12/31 12:39:18;;;;;;;2.55;1.50;;;;;;;;;;4990593;28;20414;-66
2021/12/31 12:41:51;;;;;;;4.35;2.15;;;;;;;;;;4958505;28;20112;-66
2021/12/31 12:44:22;;;;;;;3.53;2.10;;;;;;;;;;4990351;28;20055;-66
2021/12/31 12:46:55;;;;;;;3.53;2.40;;;;;;;;;;4974694;28;20050;-66
2021/12/31 12:49:29;;;;;;;3.35;1.75;;;;;;;;;;4951151;28;20055;-64
2021/12/31 12:52:11;;;;;;;3.20;1.73;;;;;;;;;;4951880;28;20063;-65
2021/12/31 12:54:42;;;;;;;3.60;1.77;;;;;;;;;;4931908;29;20527;-65
2021/12/31 12:57:25;;;;;;;3.97;2.00;;;;;;;;;;4932328;29;20093;-69
2021/12/31 12:59:56;;;;;;;3.40;1.92;;;;;;;;;;4932033;29;20067;-65
2021/12/31 13:02:47;;;;;;;3.03;1.90;;;;;;;;;;4932110;29;20070;-65
2021/12/31 13:05:18;;;;;;;3.83;1.70;;;;;;;;;;4949543;28;20055;-65
2021/12/31 13:07:52;;;;;;;3.75;1.80;;;;;;;;;;5005418;28;20045;-65
2021/12/31 13:10:26;;;;;;;4.13;1.63;;;;;;;;;;5009655;28;20073;-65
2021/12/31 13:12:57;;;;;;;3.08;2.03;;;;;;;;;;4954390;28;20054;-65
2021/12/31 13:15:30;;;;;;;5.65;2.17;;;;;;;;;;4950920;28;20051;-67
2021/12/31 13:18:03;;;;;;;2.88;1.77;;;;;;;;;;4951181;28;20051;-66
2021/12/31 13:20:36;;;;;;;3.78;1.40;;;;;;;;;;4950962;28;20070;-66
2021/12/31 13:23:08;;;;;;;2.47;1.83;;;;;;;;;;4934931;29;20055;-68
2021/12/31 13:25:48;;;;;;;3.38;1.23;;;;;;;;;;4950972;28;20055;-68
2021/12/31 13:28:22;;;;;;;3.17;1.20;;;;;;;;;;4970387;28;20435;-66
2021/12/31 13:31:06;;;;;;;2.28;1.63;;;;;;;;;;4954203;28;20066;-64
2021/12/31 13:33:44;;;;;;;3.53;1.67;;;;;;;;;;5009228;28;20084;-65
2021/12/31 13:36:20;;;;;;;2.75;1.75;;;;;;;;;;5008865;28;20510;-65
2021/12/31 13:38:59;;;;;;;2.67;1.58;;;;;;;;;;4960839;28;20548;-66
2021/12/31 13:41:33;;;;;;;2.13;1.13;;;;;;;;;;5009072;28;20061;-67
2021/12/31 13:44:29;;;;;;;3.38;1.65;;;;;;;;;;5028858;28;20053;-68
2021/12/31 13:47:18;;;;;;;3.20;1.90;;;;;;;;;;4996005;28;20061;-68
2021/12/31 13:49:51;;;;;;;3.47;1.73;;;;;;;;;;4999777;28;20584;-67
2021/12/31 13:52:25;;;;;;;2.28;2.08;;;;;;;;;;5056692;28;20411;-68
2021/12/31 13:55:00;;;;;;;1.73;0.93;;;;;;;;;;5048545;28;20053;-69
2021/12/31 13:57:32;;;;;;;3.15;1.48;;;;;;;;;;5048682;28;20064;-69
2021/12/31 14:00:05;;;;;;;;;;;;;;;;;;5049075;28;20056;-67
2021/12/31 14:02:42;;;;;;;2.08;0.98;;;;;;;;;;5028846;28;19928;-66
2021/12/31 14:05:14;;;;;;;3.28;1.40;;;;;;;;;;5028598;28;20487;-68
2021/12/31 14:10:33;;;;;;;4.10;1.75;;;;;;;;;;5008979;28;20058;-65
2021/12/31 14:13:08;;;;;;;3.95;1.50;;;;;;;;;;5008872;28;20065;-67
2021/12/31 14:15:42;;;;;;;3.25;1.77;;;;;;;;;;5009025;28;20046;-66
2021/12/31 14:18:14;;;;;;;2.38;1.77;;;;;;;;;;5008833;28;20054;-67
2021/12/31 14:20:46;;;;;;;2.00;1.40;;;;;;;;;;5009081;28;20058;-66
2021/12/31 14:23:16;;;;;;;3.40;1.38;;;;;;;;;;4992375;28;20054;-66
2021/12/31 14:25:48;;;;;;;2.25;1.13;;;;;;;;;;5008625;28;20398;-67
2021/12/31 14:28:19;;;;;;;2.92;1.42;;;;;;;;;;5008542;28;20064;-65
2021/12/31 14:30:49;;;;;;;2.53;1.60;;;;;;;;;;5008366;28;20057;-65
2021/12/31 14:33:20;;;;;;;2.13;1.38;;;;;;;;;;5026392;28;20491;-65
2021/12/31 14:36:16;;;;;;;2.60;1.20;;;;;;;;;;5035312;28;20061;-66
2021/12/31 14:38:46;;;;;;;2.17;1.70;;;;;;;;;;4975893;28;20044;-66
2021/12/31 14:41:22;;;;;;;1.95;1.40;;;;;;;;;;4988852;28;20058;-64
2021/12/31 14:43:58;;;;;;;3.00;1.42;;;;;;;;;;4988584;28;20445;-67
2021/12/31 14:46:34;;;;;;;2.50;1.60;;;;;;;;;;4989019;28;20541;-66
2021/12/31 14:49:06;;;;;;;4.63;2.28;;;;;;;;;;4991899;28;20070;-65
2021/12/31 14:51:37;;;;;;;2.90;1.17;;;;;;;;;;4976467;28;20077;-66
2021/12/31 14:54:10;;;;;;;2.25;1.05;;;;;;;;;;4992455;28;20058;-65
2021/12/31 14:56:41;;;;;;;3.33;1.05;;;;;;;;;;4992275;28;20054;-66
2021/12/31 14:59:13;;;;;;;2.17;1.23;;;;;;;;;;4960075;28;20097;-67
2021/12/31 15:01:46;;;;;;;1.83;1.10;;;;;;;;;;4992493;28;20065;-66
2021/12/31 15:04:16;;;;;;;1.67;0.90;;;;;;;;;;4992260;28;20062;-65
2021/12/31 15:06:46;;;;;;;1.70;1.23;;;;;;;;;;4991837;28;20065;-66
2021/12/31 15:09:17;;;;;;;5.60;2.63;;;;;;;;;;4975928;28;20065;-64
2021/12/31 15:11:48;;;;;;;4.28;1.60;;;;;;;;;;4972805;28;20058;-69
2021/12/31 15:14:18;;;;;;;2.50;1.15;;;;;;;;;;4940336;28;20058;-66
2021/12/31 15:16:49;;;;;;;2.20;1.33;;;;;;;;;;4998927;28;20395;-65
2021/12/31 15:19:20;;;;;;;2.83;1.08;;;;;;;;;;5052705;28;20059;-68